sensor_id;sensor_type;location;lat;lon;timestamp;P1;durP1;ratioP1;P2;durP2;ratioP2
22314;SDS011;11325;55.686;37.566;2023-07-24T00:00:50;3.47;;;2.80;;
22314;SDS011;11325;55.686;37.566;2023-07-24T00:03:29;5.78;;;2.77;;
22314;SDS011;11325;55.686;37.566;2023-07-24T00:06:08;6.30;;;2.90;;
22314;SDS011;11325;55.686;37.566;2023-07-24T00:08:48;3.87;;;2.65;;
22314;SDS011;11325;55.686;37.566;2023-07-24T00:11:26;2.92;;;2.58;;
22314;SDS011;11325;55.686;37.566;2023-07-24T00:13:55;4.67;;;2.75;;
22314;SDS011;11325;55.686;37.566;2023-07-24T00:16:33;4.10;;;3.05;;
22314;SDS011;11325;55.686;37.566;2023-07-24T00:19:02;3.08;;;2.47;;
22314;SDS011;11325;55.686;37.566;2023-07-24T00:21:46;8.63;;;2.90;;
22314;SDS011;11325;55.686;37.566;2023-07-24T00:24:26;8.15;;;3.27;;
22314;SDS011;11325;55.686;37.566;2023-07-24T00:26:55;5.45;;;2.77;;
22314;SDS011;11325;55.686;37.566;2023-07-24T00:29:23;4.47;;;3.10;;
22314;SDS011;11325;55.686;37.566;2023-07-24T00:31:52;3.75;;;2.62;;
22314;SDS011;11325;55.686;37.566;2023-07-24T00:34:31;5.78;;;2.85;;
22314;SDS011;11325;55.686;37.566;2023-07-24T00:36:59;5.72;;;3.60;;
22314;SDS011;11325;55.686;37.566;2023-07-24T00:39:28;5.10;;;2.90;;
22314;SDS011;11325;55.686;37.566;2023-07-24T00:42:07;4.12;;;2.87;;
22314;SDS011;11325;55.686;37.566;2023-07-24T00:44:46;9.80;;;3.25;;
22314;SDS011;11325;55.686;37.566;2023-07-24T00:47:14;6.83;;;3.20;;
22314;SDS011;11325;55.686;37.566;2023-07-24T00:49:53;7.83;;;2.85;;
22314;SDS011;11325;55.686;37.566;2023-07-24T00:52:22;4.92;;;3.17;;
22314;SDS011;11325;55.686;37.566;2023-07-24T00:55:00;4.90;;;3.12;;
22314;SDS011;11325;55.686;37.566;2023-07-24T00:57:39;7.10;;;3.05;;
22314;SDS011;11325;55.686;37.566;2023-07-24T01:00:08;4.58;;;3.30;;
22314;SDS011;11325;55.686;37.566;2023-07-24T01:02:37;3.60;;;3.00;;
22314;SDS011;11325;55.686;37.566;2023-07-24T01:05:06;5.55;;;3.12;;
22314;SDS011;11325;55.686;37.566;2023-07-24T01:07:45;4.12;;;2.90;;
22314;SDS011;11325;55.686;37.566;2023-07-24T01:10:25;4.35;;;2.90;;
22314;SDS011;11325;55.686;37.566;2023-07-24T01:13:08;7.90;;;2.80;;
22314;SDS011;11325;55.686;37.566;2023-07-24T01:15:37;11.97;;;3.40;;
22314;SDS011;11325;55.686;37.566;2023-07-24T01:18:06;6.33;;;3.05;;
22314;SDS011;11325;55.686;37.566;2023-07-24T01:20:37;4.42;;;3.20;;
22314;SDS011;11325;55.686;37.566;2023-07-24T01:25:59;4.92;;;3.00;;
22314;SDS011;11325;55.686;37.566;2023-07-24T01:28:28;5.42;;;3.22;;
22314;SDS011;11325;55.686;37.566;2023-07-24T01:31:06;4.22;;;3.25;;
22314;SDS011;11325;55.686;37.566;2023-07-24T01:33:35;5.50;;;2.62;;
22314;SDS011;11325;55.686;37.566;2023-07-24T01:36:04;6.70;;;3.27;;
22314;SDS011;11325;55.686;37.566;2023-07-24T01:38:34;6.05;;;2.75;;
22314;SDS011;11325;55.686;37.566;2023-07-24T01:41:03;3.98;;;2.67;;
22314;SDS011;11325;55.686;37.566;2023-07-24T01:43:41;9.75;;;2.80;;
22314;SDS011;11325;55.686;37.566;2023-07-24T01:46:11;5.03;;;3.20;;
22314;SDS011;11325;55.686;37.566;2023-07-24T01:48:40;6.42;;;2.70;;
22314;SDS011;11325;55.686;37.566;2023-07-24T01:51:08;5.45;;;3.10;;
22314;SDS011;11325;55.686;37.566;2023-07-24T01:53:37;6.78;;;2.83;;
22314;SDS011;11325;55.686;37.566;2023-07-24T01:56:05;3.67;;;2.67;;
22314;SDS011;11325;55.686;37.566;2023-07-24T01:58:34;8.68;;;3.27;;
22314;SDS011;11325;55.686;37.566;2023-07-24T02:01:13;4.37;;;2.52;;
22314;SDS011;11325;55.686;37.566;2023-07-24T02:03:42;4.55;;;2.58;;
22314;SDS011;11325;55.686;37.566;2023-07-24T02:06:11;7.25;;;3.52;;
22314;SDS011;11325;55.686;37.566;2023-07-24T02:08:39;4.35;;;3.05;;
22314;SDS011;11325;55.686;37.566;2023-07-24T02:11:09;7.10;;;3.20;;
22314;SDS011;11325;55.686;37.566;2023-07-24T02:13:38;7.53;;;3.30;;
22314;SDS011;11325;55.686;37.566;2023-07-24T02:16:06;8.25;;;2.95;;
22314;SDS011;11325;55.686;37.566;2023-07-24T02:18:45;8.05;;;4.10;;
22314;SDS011;11325;55.686;37.566;2023-07-24T02:21:14;6.53;;;4.00;;
22314;SDS011;11325;55.686;37.566;2023-07-24T02:23:53;8.90;;;3.45;;
22314;SDS011;11325;55.686;37.566;2023-07-24T02:26:22;8.63;;;3.50;;
22314;SDS011;11325;55.686;37.566;2023-07-24T02:28:50;5.92;;;3.67;;
22314;SDS011;11325;55.686;37.566;2023-07-24T02:31:19;6.25;;;3.40;;
22314;SDS011;11325;55.686;37.566;2023-07-24T02:33:48;11.75;;;4.92;;
22314;SDS011;11325;55.686;37.566;2023-07-24T02:36:27;7.58;;;4.08;;
22314;SDS011;11325;55.686;37.566;2023-07-24T02:38:55;8.38;;;3.72;;
22314;SDS011;11325;55.686;37.566;2023-07-24T02:41:24;5.55;;;3.90;;
22314;SDS011;11325;55.686;37.566;2023-07-24T02:44:03;6.83;;;4.25;;
22314;SDS011;11325;55.686;37.566;2023-07-24T02:46:31;10.03;;;3.45;;
22314;SDS011;11325;55.686;37.566;2023-07-24T02:49:10;5.97;;;3.65;;
22314;SDS011;11325;55.686;37.566;2023-07-24T02:51:38;8.70;;;3.90;;
22314;SDS011;11325;55.686;37.566;2023-07-24T02:54:07;9.95;;;3.95;;
22314;SDS011;11325;55.686;37.566;2023-07-24T02:56:35;6.33;;;3.77;;
22314;SDS011;11325;55.686;37.566;2023-07-24T02:59:04;5.78;;;3.50;;
22314;SDS011;11325;55.686;37.566;2023-07-24T03:01:43;7.53;;;4.12;;
22314;SDS011;11325;55.686;37.566;2023-07-24T03:04:11;5.78;;;3.47;;
22314;SDS011;11325;55.686;37.566;2023-07-24T03:06:40;8.10;;;3.70;;
22314;SDS011;11325;55.686;37.566;2023-07-24T03:09:08;5.33;;;3.33;;
22314;SDS011;11325;55.686;37.566;2023-07-24T03:11:37;5.45;;;3.35;;
22314;SDS011;11325;55.686;37.566;2023-07-24T03:14:06;13.22;;;4.03;;
22314;SDS011;11325;55.686;37.566;2023-07-24T03:16:44;12.75;;;4.20;;
22314;SDS011;11325;55.686;37.566;2023-07-24T03:19:13;7.67;;;3.27;;
22314;SDS011;11325;55.686;37.566;2023-07-24T03:21:43;7.25;;;3.40;;
22314;SDS011;11325;55.686;37.566;2023-07-24T03:24:12;5.58;;;3.45;;
22314;SDS011;11325;55.686;37.566;2023-07-24T03:26:40;6.50;;;3.15;;
22314;SDS011;11325;55.686;37.566;2023-07-24T03:29:20;5.75;;;3.45;;
22314;SDS011;11325;55.686;37.566;2023-07-24T03:31:48;5.85;;;3.33;;
22314;SDS011;11325;55.686;37.566;2023-07-24T03:34:26;7.53;;;3.33;;
22314;SDS011;11325;55.686;37.566;2023-07-24T03:37:08;5.62;;;3.22;;
22314;SDS011;11325;55.686;37.566;2023-07-24T03:39:37;10.10;;;3.87;;
22314;SDS011;11325;55.686;37.566;2023-07-24T03:45:05;4.72;;;3.22;;
22314;SDS011;11325;55.686;37.566;2023-07-24T03:47:44;3.45;;;3.15;;
22314;SDS011;11325;55.686;37.566;2023-07-24T03:50:13;5.90;;;3.35;;
22314;SDS011;11325;55.686;37.566;2023-07-24T03:52:41;5.45;;;2.72;;
22314;SDS011;11325;55.686;37.566;2023-07-24T03:55:19;3.72;;;3.08;;
22314;SDS011;11325;55.686;37.566;2023-07-24T03:57:59;4.85;;;3.10;;
22314;SDS011;11325;55.686;37.566;2023-07-24T04:00:29;7.58;;;3.20;;
22314;SDS011;11325;55.686;37.566;2023-07-24T04:03:08;5.80;;;3.10;;
22314;SDS011;11325;55.686;37.566;2023-07-24T04:05:48;6.15;;;3.05;;
22314;SDS011;11325;55.686;37.566;2023-07-24T04:08:16;5.67;;;3.12;;
22314;SDS011;11325;55.686;37.566;2023-07-24T04:10:54;5.78;;;3.25;;
22314;SDS011;11325;55.686;37.566;2023-07-24T04:13:24;4.55;;;2.83;;
22314;SDS011;11325;55.686;37.566;2023-07-24T04:15:52;4.97;;;2.45;;
22314;SDS011;11325;55.686;37.566;2023-07-24T04:18:21;6.35;;;3.02;;
22314;SDS011;11325;55.686;37.566;2023-07-24T04:20:49;17.07;;;3.60;;
22314;SDS011;11325;55.686;37.566;2023-07-24T04:23:29;4.97;;;2.92;;
22314;SDS011;11325;55.686;37.566;2023-07-24T04:26:07;6.40;;;3.00;;
22314;SDS011;11325;55.686;37.566;2023-07-24T04:28:36;4.83;;;2.60;;
22314;SDS011;11325;55.686;37.566;2023-07-24T04:31:15;3.47;;;3.00;;
22314;SDS011;11325;55.686;37.566;2023-07-24T04:33:43;6.80;;;3.60;;
22314;SDS011;11325;55.686;37.566;2023-07-24T04:36:12;3.65;;;2.83;;
22314;SDS011;11325;55.686;37.566;2023-07-24T04:38:40;11.55;;;3.15;;
22314;SDS011;11325;55.686;37.566;2023-07-24T04:41:09;3.67;;;2.60;;
22314;SDS011;11325;55.686;37.566;2023-07-24T04:43:37;8.68;;;2.65;;
22314;SDS011;11325;55.686;37.566;2023-07-24T04:46:06;5.60;;;2.80;;
22314;SDS011;11325;55.686;37.566;2023-07-24T04:48:34;3.15;;;2.62;;
22314;SDS011;11325;55.686;37.566;2023-07-24T04:51:13;2.92;;;2.60;;
22314;SDS011;11325;55.686;37.566;2023-07-24T04:53:41;8.18;;;2.55;;
22314;SDS011;11325;55.686;37.566;2023-07-24T04:56:10;11.55;;;2.70;;
22314;SDS011;11325;55.686;37.566;2023-07-24T04:58:55;3.15;;;2.40;;
22314;SDS011;11325;55.686;37.566;2023-07-24T05:01:23;6.67;;;2.60;;
22314;SDS011;11325;55.686;37.566;2023-07-24T05:03:52;4.97;;;2.45;;
22314;SDS011;11325;55.686;37.566;2023-07-24T05:06:20;6.37;;;2.90;;
22314;SDS011;11325;55.686;37.566;2023-07-24T05:09:00;4.78;;;2.67;;
22314;SDS011;11325;55.686;37.566;2023-07-24T05:11:28;4.17;;;2.50;;
22314;SDS011;11325;55.686;37.566;2023-07-24T05:13:57;7.95;;;2.37;;
22314;SDS011;11325;55.686;37.566;2023-07-24T05:16:25;3.30;;;2.40;;
22314;SDS011;11325;55.686;37.566;2023-07-24T05:19:05;5.60;;;2.30;;
22314;SDS011;11325;55.686;37.566;2023-07-24T05:21:33;3.98;;;2.17;;
22314;SDS011;11325;55.686;37.566;2023-07-24T05:24:11;3.65;;;2.42;;
22314;SDS011;11325;55.686;37.566;2023-07-24T05:26:52;3.52;;;2.17;;
22314;SDS011;11325;55.686;37.566;2023-07-24T05:29:20;6.00;;;2.15;;
22314;SDS011;11325;55.686;37.566;2023-07-24T05:31:49;7.17;;;2.02;;
22314;SDS011;11325;55.686;37.566;2023-07-24T05:34:33;2.17;;;1.62;;
22314;SDS011;11325;55.686;37.566;2023-07-24T05:37:02;2.27;;;1.80;;
22314;SDS011;11325;55.686;37.566;2023-07-24T05:39:41;2.15;;;1.60;;
22314;SDS011;11325;55.686;37.566;2023-07-24T05:42:26;1.70;;;1.60;;
22314;SDS011;11325;55.686;37.566;2023-07-24T05:44:54;2.00;;;1.45;;
22314;SDS011;11325;55.686;37.566;2023-07-24T05:47:23;3.40;;;1.72;;
22314;SDS011;11325;55.686;37.566;2023-07-24T05:49:51;1.95;;;1.40;;
22314;SDS011;11325;55.686;37.566;2023-07-24T05:52:31;2.42;;;1.70;;
22314;SDS011;11325;55.686;37.566;2023-07-24T05:54:59;2.37;;;1.80;;
22314;SDS011;11325;55.686;37.566;2023-07-24T05:57:29;5.30;;;2.35;;
22314;SDS011;11325;55.686;37.566;2023-07-24T05:59:58;3.52;;;2.25;;
22314;SDS011;11325;55.686;37.566;2023-07-24T06:02:36;3.67;;;1.85;;
22314;SDS011;11325;55.686;37.566;2023-07-24T06:05:16;3.33;;;2.00;;
22314;SDS011;11325;55.686;37.566;2023-07-24T06:07:44;3.05;;;1.92;;
22314;SDS011;11325;55.686;37.566;2023-07-24T06:10:13;2.98;;;1.55;;
22314;SDS011;11325;55.686;37.566;2023-07-24T06:12:41;8.78;;;2.08;;
22314;SDS011;11325;55.686;37.566;2023-07-24T06:15:10;5.67;;;1.90;;
22314;SDS011;11325;55.686;37.566;2023-07-24T06:17:39;4.55;;;1.90;;
22314;SDS011;11325;55.686;37.566;2023-07-24T06:20:07;7.12;;;2.12;;
22314;SDS011;11325;55.686;37.566;2023-07-24T06:22:36;2.90;;;1.70;;
22314;SDS011;11325;55.686;37.566;2023-07-24T06:25:15;9.60;;;1.82;;
22314;SDS011;11325;55.686;37.566;2023-07-24T06:27:45;4.75;;;2.00;;
22314;SDS011;11325;55.686;37.566;2023-07-24T06:30:24;3.00;;;1.80;;
22314;SDS011;11325;55.686;37.566;2023-07-24T06:33:03;6.65;;;2.02;;
22314;SDS011;11325;55.686;37.566;2023-07-24T06:35:42;12.75;;;1.95;;
22314;SDS011;11325;55.686;37.566;2023-07-24T06:38:21;4.22;;;1.82;;
22314;SDS011;11325;55.686;37.566;2023-07-24T06:40:49;5.45;;;1.72;;
22314;SDS011;11325;55.686;37.566;2023-07-24T06:43:29;3.22;;;1.82;;
22314;SDS011;11325;55.686;37.566;2023-07-24T06:45:58;2.37;;;1.77;;
22314;SDS011;11325;55.686;37.566;2023-07-24T06:48:36;9.85;;;2.27;;
22314;SDS011;11325;55.686;37.566;2023-07-24T06:51:04;6.03;;;2.22;;
22314;SDS011;11325;55.686;37.566;2023-07-24T06:53:33;7.15;;;1.70;;
22314;SDS011;11325;55.686;37.566;2023-07-24T06:56:12;2.20;;;1.65;;
22314;SDS011;11325;55.686;37.566;2023-07-24T06:58:50;2.90;;;1.82;;
22314;SDS011;11325;55.686;37.566;2023-07-24T07:01:29;3.37;;;2.08;;
22314;SDS011;11325;55.686;37.566;2023-07-24T07:03:57;4.17;;;1.80;;
22314;SDS011;11325;55.686;37.566;2023-07-24T07:06:36;5.87;;;2.08;;
22314;SDS011;11325;55.686;37.566;2023-07-24T07:09:04;5.47;;;2.08;;
22314;SDS011;11325;55.686;37.566;2023-07-24T07:11:44;4.10;;;1.65;;
22314;SDS011;11325;55.686;37.566;2023-07-24T07:14:12;4.12;;;1.65;;
22314;SDS011;11325;55.686;37.566;2023-07-24T07:16:41;4.67;;;1.77;;
22314;SDS011;11325;55.686;37.566;2023-07-24T07:19:10;6.28;;;1.80;;
22314;SDS011;11325;55.686;37.566;2023-07-24T07:21:49;3.90;;;2.40;;
22314;SDS011;11325;55.686;37.566;2023-07-24T07:24:17;4.12;;;2.83;;
22314;SDS011;11325;55.686;37.566;2023-07-24T07:26:46;6.58;;;1.92;;
22314;SDS011;11325;55.686;37.566;2023-07-24T07:29:15;2.25;;;1.77;;
22314;SDS011;11325;55.686;37.566;2023-07-24T07:31:54;4.15;;;1.60;;
22314;SDS011;11325;55.686;37.566;2023-07-24T07:34:22;3.92;;;1.92;;
22314;SDS011;11325;55.686;37.566;2023-07-24T07:37:01;5.15;;;1.77;;
22314;SDS011;11325;55.686;37.566;2023-07-24T07:39:29;5.60;;;1.90;;
22314;SDS011;11325;55.686;37.566;2023-07-24T07:41:58;4.45;;;1.82;;
22314;SDS011;11325;55.686;37.566;2023-07-24T07:44:26;2.92;;;1.57;;
22314;SDS011;11325;55.686;37.566;2023-07-24T07:46:55;2.85;;;1.70;;
22314;SDS011;11325;55.686;37.566;2023-07-24T07:49:23;4.80;;;1.90;;
22314;SDS011;11325;55.686;37.566;2023-07-24T07:51:52;2.02;;;1.67;;
22314;SDS011;11325;55.686;37.566;2023-07-24T07:54:50;2.02;;;1.55;;
22314;SDS011;11325;55.686;37.566;2023-07-24T07:57:19;2.47;;;1.65;;
22314;SDS011;11325;55.686;37.566;2023-07-24T07:59:47;2.75;;;1.35;;
22314;SDS011;11325;55.686;37.566;2023-07-24T08:02:16;4.58;;;1.80;;
22314;SDS011;11325;55.686;37.566;2023-07-24T08:04:45;3.67;;;1.80;;
22314;SDS011;11325;55.686;37.566;2023-07-24T08:07:13;4.12;;;2.10;;
22314;SDS011;11325;55.686;37.566;2023-07-24T08:09:42;3.22;;;1.87;;
22314;SDS011;11325;55.686;37.566;2023-07-24T08:12:10;3.05;;;1.90;;
22314;SDS011;11325;55.686;37.566;2023-07-24T08:14:49;7.80;;;2.67;;
22314;SDS011;11325;55.686;37.566;2023-07-24T08:17:18;3.58;;;2.05;;
22314;SDS011;11325;55.686;37.566;2023-07-24T08:19:47;7.80;;;2.60;;
22314;SDS011;11325;55.686;37.566;2023-07-24T08:22:16;7.62;;;2.20;;
22314;SDS011;11325;55.686;37.566;2023-07-24T08:24:55;4.30;;;2.20;;
22314;SDS011;11325;55.686;37.566;2023-07-24T08:27:23;4.00;;;2.20;;
22314;SDS011;11325;55.686;37.566;2023-07-24T08:29:52;4.90;;;2.50;;
22314;SDS011;11325;55.686;37.566;2023-07-24T08:32:20;7.25;;;2.30;;
22314;SDS011;11325;55.686;37.566;2023-07-24T08:34:49;10.70;;;2.55;;
22314;SDS011;11325;55.686;37.566;2023-07-24T08:37:18;3.37;;;2.35;;
22314;SDS011;11325;55.686;37.566;2023-07-24T08:39:46;7.12;;;2.50;;
22314;SDS011;11325;55.686;37.566;2023-07-24T08:42:15;9.38;;;3.15;;
22314;SDS011;11325;55.686;37.566;2023-07-24T08:44:44;13.70;;;2.80;;
22314;SDS011;11325;55.686;37.566;2023-07-24T08:47:23;8.25;;;3.25;;
22314;SDS011;11325;55.686;37.566;2023-07-24T08:49:52;5.22;;;3.20;;
22314;SDS011;11325;55.686;37.566;2023-07-24T08:52:22;12.98;;;2.87;;
22314;SDS011;11325;55.686;37.566;2023-07-24T08:54:51;7.15;;;2.67;;
22314;SDS011;11325;55.686;37.566;2023-07-24T08:57:30;14.85;;;3.17;;
22314;SDS011;11325;55.686;37.566;2023-07-24T09:00:10;8.60;;;3.60;;
22314;SDS011;11325;55.686;37.566;2023-07-24T09:02:38;6.22;;;2.40;;
22314;SDS011;11325;55.686;37.566;2023-07-24T09:05:07;8.20;;;3.25;;
22314;SDS011;11325;55.686;37.566;2023-07-24T09:07:36;9.93;;;2.67;;
22314;SDS011;11325;55.686;37.566;2023-07-24T09:10:05;10.82;;;2.98;;
22314;SDS011;11325;55.686;37.566;2023-07-24T09:12:36;4.55;;;2.85;;
22314;SDS011;11325;55.686;37.566;2023-07-24T09:15:14;5.87;;;3.08;;
22314;SDS011;11325;55.686;37.566;2023-07-24T09:17:59;7.22;;;3.47;;
22314;SDS011;11325;55.686;37.566;2023-07-24T09:20:42;9.03;;;3.67;;
22314;SDS011;11325;55.686;37.566;2023-07-24T09:23:27;6.53;;;3.27;;
22314;SDS011;11325;55.686;37.566;2023-07-24T09:25:56;5.97;;;3.60;;
22314;SDS011;11325;55.686;37.566;2023-07-24T09:28:25;3.70;;;3.08;;
22314;SDS011;11325;55.686;37.566;2023-07-24T09:30:54;13.05;;;7.15;;
22314;SDS011;11325;55.686;37.566;2023-07-24T09:33:36;7.08;;;3.02;;
22314;SDS011;11325;55.686;37.566;2023-07-24T09:36:06;10.95;;;3.27;;
22314;SDS011;11325;55.686;37.566;2023-07-24T09:38:48;5.42;;;2.67;;
22314;SDS011;11325;55.686;37.566;2023-07-24T09:41:26;4.55;;;2.45;;
22314;SDS011;11325;55.686;37.566;2023-07-24T09:43:46;4.83;;;3.35;;
22314;SDS011;11325;55.686;37.566;2023-07-24T09:46:15;8.23;;;3.02;;
22314;SDS011;11325;55.686;37.566;2023-07-24T09:48:44;3.62;;;2.85;;
22314;SDS011;11325;55.686;37.566;2023-07-24T09:51:22;9.08;;;3.20;;
22314;SDS011;11325;55.686;37.566;2023-07-24T09:53:53;4.45;;;3.12;;
22314;SDS011;11325;55.686;37.566;2023-07-24T09:56:31;5.20;;;2.92;;
22314;SDS011;11325;55.686;37.566;2023-07-24T09:59:01;6.10;;;3.35;;
22314;SDS011;11325;55.686;37.566;2023-07-24T10:01:40;5.10;;;3.05;;
22314;SDS011;11325;55.686;37.566;2023-07-24T10:04:20;5.42;;;2.95;;
22314;SDS011;11325;55.686;37.566;2023-07-24T10:06:48;3.40;;;2.77;;
22314;SDS011;11325;55.686;37.566;2023-07-24T10:09:17;9.10;;;2.67;;
22314;SDS011;11325;55.686;37.566;2023-07-24T10:11:48;3.02;;;2.30;;
22314;SDS011;11325;55.686;37.566;2023-07-24T10:14:16;3.98;;;2.47;;
22314;SDS011;11325;55.686;37.566;2023-07-24T10:16:45;7.87;;;3.20;;
22314;SDS011;11325;55.686;37.566;2023-07-24T10:19:14;5.78;;;3.02;;
22314;SDS011;11325;55.686;37.566;2023-07-24T10:21:55;7.62;;;3.37;;
22314;SDS011;11325;55.686;37.566;2023-07-24T10:24:28;6.60;;;3.02;;
22314;SDS011;11325;55.686;37.566;2023-07-24T10:27:04;6.50;;;3.37;;
22314;SDS011;11325;55.686;37.566;2023-07-24T10:29:43;3.75;;;2.80;;
22314;SDS011;11325;55.686;37.566;2023-07-24T10:32:16;4.40;;;3.12;;
22314;SDS011;11325;55.686;37.566;2023-07-24T10:34:59;8.93;;;3.00;;
22314;SDS011;11325;55.686;37.566;2023-07-24T10:37:37;4.50;;;3.17;;
22314;SDS011;11325;55.686;37.566;2023-07-24T10:40:06;5.37;;;3.37;;
22314;SDS011;11325;55.686;37.566;2023-07-24T10:42:44;6.05;;;3.17;;
22314;SDS011;11325;55.686;37.566;2023-07-24T10:45:12;5.70;;;2.90;;
22314;SDS011;11325;55.686;37.566;2023-07-24T10:47:41;5.28;;;2.90;;
22314;SDS011;11325;55.686;37.566;2023-07-24T10:50:20;3.83;;;3.17;;
22314;SDS011;11325;55.686;37.566;2023-07-24T10:52:49;4.10;;;2.72;;
22314;SDS011;11325;55.686;37.566;2023-07-24T10:55:18;3.80;;;2.77;;
22314;SDS011;11325;55.686;37.566;2023-07-24T10:57:56;4.10;;;2.90;;
22314;SDS011;11325;55.686;37.566;2023-07-24T11:00:25;4.78;;;2.87;;
22314;SDS011;11325;55.686;37.566;2023-07-24T11:03:07;6.37;;;3.33;;
22314;SDS011;11325;55.686;37.566;2023-07-24T11:05:35;5.60;;;3.45;;
22314;SDS011;11325;55.686;37.566;2023-07-24T11:08:15;4.50;;;3.10;;
22314;SDS011;11325;55.686;37.566;2023-07-24T11:10:44;5.12;;;3.02;;
22314;SDS011;11325;55.686;37.566;2023-07-24T11:13:25;5.08;;;3.40;;
22314;SDS011;11325;55.686;37.566;2023-07-24T11:16:05;4.80;;;3.45;;
22314;SDS011;11325;55.686;37.566;2023-07-24T11:18:43;5.03;;;3.40;;
22314;SDS011;11325;55.686;37.566;2023-07-24T11:21:14;5.22;;;3.37;;
22314;SDS011;11325;55.686;37.566;2023-07-24T11:23:55;8.18;;;3.95;;
22314;SDS011;11325;55.686;37.566;2023-07-24T11:26:33;7.25;;;3.90;;
22314;SDS011;11325;55.686;37.566;2023-07-24T11:29:10;5.25;;;3.65;;
22314;SDS011;11325;55.686;37.566;2023-07-24T11:31:42;5.33;;;3.85;;
22314;SDS011;11325;55.686;37.566;2023-07-24T11:34:21;5.87;;;3.90;;
22314;SDS011;11325;55.686;37.566;2023-07-24T11:36:50;4.75;;;3.90;;
22314;SDS011;11325;55.686;37.566;2023-07-24T11:39:28;8.13;;;3.62;;
22314;SDS011;11325;55.686;37.566;2023-07-24T11:41:57;5.05;;;3.67;;
22314;SDS011;11325;55.686;37.566;2023-07-24T11:44:27;10.03;;;4.22;;
22314;SDS011;11325;55.686;37.566;2023-07-24T11:47:06;5.75;;;4.08;;
22314;SDS011;11325;55.686;37.566;2023-07-24T11:49:35;10.18;;;4.03;;
22314;SDS011;11325;55.686;37.566;2023-07-24T11:52:05;5.95;;;4.22;;
22314;SDS011;11325;55.686;37.566;2023-07-24T11:54:34;7.50;;;4.75;;
22314;SDS011;11325;55.686;37.566;2023-07-24T11:57:02;8.78;;;3.90;;
22314;SDS011;11325;55.686;37.566;2023-07-24T11:59:36;7.15;;;4.20;;
22314;SDS011;11325;55.686;37.566;2023-07-24T12:02:11;5.72;;;4.10;;
22314;SDS011;11325;55.686;37.566;2023-07-24T12:04:40;8.15;;;4.33;;
22314;SDS011;11325;55.686;37.566;2023-07-24T12:07:08;9.88;;;4.87;;
22314;SDS011;11325;55.686;37.566;2023-07-24T12:09:37;16.93;;;10.25;;
22314;SDS011;11325;55.686;37.566;2023-07-24T12:12:05;7.97;;;4.55;;
22314;SDS011;11325;55.686;37.566;2023-07-24T12:14:35;6.50;;;4.35;;
22314;SDS011;11325;55.686;37.566;2023-07-24T12:17:04;5.53;;;3.95;;
22314;SDS011;11325;55.686;37.566;2023-07-24T12:19:44;5.62;;;3.85;;
22314;SDS011;11325;55.686;37.566;2023-07-24T12:22:13;7.10;;;3.80;;
22314;SDS011;11325;55.686;37.566;2023-07-24T12:24:41;4.53;;;3.40;;
22314;SDS011;11325;55.686;37.566;2023-07-24T12:27:10;6.28;;;4.20;;
22314;SDS011;11325;55.686;37.566;2023-07-24T12:29:48;6.42;;;4.37;;
22314;SDS011;11325;55.686;37.566;2023-07-24T12:32:17;7.20;;;4.15;;
22314;SDS011;11325;55.686;37.566;2023-07-24T12:34:46;9.43;;;4.25;;
22314;SDS011;11325;55.686;37.566;2023-07-24T12:37:25;6.37;;;4.83;;
22314;SDS011;11325;55.686;37.566;2023-07-24T12:40:04;5.55;;;4.35;;
22314;SDS011;11325;55.686;37.566;2023-07-24T12:42:33;5.60;;;4.17;;
22314;SDS011;11325;55.686;37.566;2023-07-24T12:45:02;5.85;;;4.55;;
22314;SDS011;11325;55.686;37.566;2023-07-24T12:47:32;6.37;;;4.53;;
22314;SDS011;11325;55.686;37.566;2023-07-24T12:50:01;7.20;;;4.10;;
22314;SDS011;11325;55.686;37.566;2023-07-24T12:52:40;8.53;;;4.10;;
22314;SDS011;11325;55.686;37.566;2023-07-24T12:55:09;8.03;;;4.20;;
22314;SDS011;11325;55.686;37.566;2023-07-24T12:57:37;7.58;;;4.30;;
22314;SDS011;11325;55.686;37.566;2023-07-24T13:00:16;6.53;;;4.00;;
22314;SDS011;11325;55.686;37.566;2023-07-24T13:02:45;5.87;;;4.47;;
22314;SDS011;11325;55.686;37.566;2023-07-24T13:05:13;8.48;;;4.80;;
22314;SDS011;11325;55.686;37.566;2023-07-24T13:07:52;10.78;;;4.50;;
22314;SDS011;11325;55.686;37.566;2023-07-24T13:10:20;7.60;;;4.60;;
22314;SDS011;11325;55.686;37.566;2023-07-24T13:12:59;7.12;;;4.78;;
22314;SDS011;11325;55.686;37.566;2023-07-24T13:15:28;7.72;;;4.85;;
22314;SDS011;11325;55.686;37.566;2023-07-24T13:18:08;6.90;;;4.75;;
22314;SDS011;11325;55.686;37.566;2023-07-24T13:20:36;6.67;;;4.97;;
22314;SDS011;11325;55.686;37.566;2023-07-24T13:23:05;7.60;;;5.00;;
22314;SDS011;11325;55.686;37.566;2023-07-24T13:25:34;10.10;;;5.37;;
22314;SDS011;11325;55.686;37.566;2023-07-24T13:28:02;10.65;;;5.15;;
22314;SDS011;11325;55.686;37.566;2023-07-24T13:30:42;8.25;;;5.25;;
22314;SDS011;11325;55.686;37.566;2023-07-24T13:33:21;7.37;;;4.40;;
22314;SDS011;11325;55.686;37.566;2023-07-24T13:35:50;10.20;;;5.33;;
22314;SDS011;11325;55.686;37.566;2023-07-24T13:38:29;6.58;;;4.87;;
22314;SDS011;11325;55.686;37.566;2023-07-24T13:41:07;7.37;;;4.58;;
22314;SDS011;11325;55.686;37.566;2023-07-24T13:43:46;6.30;;;4.42;;
22314;SDS011;11325;55.686;37.566;2023-07-24T13:46:14;9.08;;;5.30;;
22314;SDS011;11325;55.686;37.566;2023-07-24T13:48:43;8.00;;;5.28;;
22314;SDS011;11325;55.686;37.566;2023-07-24T13:51:11;6.70;;;4.30;;
22314;SDS011;11325;55.686;37.566;2023-07-24T13:53:40;6.65;;;4.33;;
22314;SDS011;11325;55.686;37.566;2023-07-24T13:56:19;5.78;;;4.50;;
22314;SDS011;11325;55.686;37.566;2023-07-24T13:58:49;11.90;;;5.53;;
22314;SDS011;11325;55.686;37.566;2023-07-24T14:01:28;5.25;;;4.25;;
22314;SDS011;11325;55.686;37.566;2023-07-24T14:04:07;7.95;;;4.92;;
22314;SDS011;11325;55.686;37.566;2023-07-24T14:06:36;9.85;;;4.85;;
22314;SDS011;11325;55.686;37.566;2023-07-24T14:09:04;5.55;;;4.47;;
22314;SDS011;11325;55.686;37.566;2023-07-24T14:11:43;7.80;;;4.55;;
22314;SDS011;11325;55.686;37.566;2023-07-24T14:14:11;7.47;;;5.03;;
22314;SDS011;11325;55.686;37.566;2023-07-24T14:16:40;9.95;;;4.70;;
22314;SDS011;11325;55.686;37.566;2023-07-24T14:19:19;6.40;;;4.62;;
22314;SDS011;11325;55.686;37.566;2023-07-24T14:21:47;9.65;;;5.15;;
22314;SDS011;11325;55.686;37.566;2023-07-24T14:24:16;9.43;;;5.62;;
22314;SDS011;11325;55.686;37.566;2023-07-24T14:26:54;9.58;;;4.70;;
22314;SDS011;11325;55.686;37.566;2023-07-24T14:29:23;8.05;;;5.00;;
22314;SDS011;11325;55.686;37.566;2023-07-24T14:32:01;11.35;;;4.85;;
22314;SDS011;11325;55.686;37.566;2023-07-24T14:34:29;7.17;;;4.60;;
22314;SDS011;11325;55.686;37.566;2023-07-24T14:37:08;7.87;;;4.85;;
22314;SDS011;11325;55.686;37.566;2023-07-24T14:39:47;11.73;;;4.37;;
22314;SDS011;11325;55.686;37.566;2023-07-24T14:42:15;6.50;;;4.33;;
22314;SDS011;11325;55.686;37.566;2023-07-24T14:44:44;7.42;;;4.90;;
22314;SDS011;11325;55.686;37.566;2023-07-24T14:47:12;9.10;;;4.75;;
22314;SDS011;11325;55.686;37.566;2023-07-24T14:49:52;7.33;;;4.50;;
22314;SDS011;11325;55.686;37.566;2023-07-24T14:52:32;7.55;;;4.95;;
22314;SDS011;11325;55.686;37.566;2023-07-24T14:55:10;8.60;;;4.75;;
22314;SDS011;11325;55.686;37.566;2023-07-24T14:57:49;7.15;;;4.25;;
22314;SDS011;11325;55.686;37.566;2023-07-24T15:00:28;7.12;;;4.55;;
22314;SDS011;11325;55.686;37.566;2023-07-24T15:02:57;10.72;;;4.65;;
22314;SDS011;11325;55.686;37.566;2023-07-24T15:05:25;7.05;;;4.80;;
22314;SDS011;11325;55.686;37.566;2023-07-24T15:07:54;11.57;;;5.50;;
22314;SDS011;11325;55.686;37.566;2023-07-24T15:10:22;10.72;;;4.97;;